sensor_id;sensor_type;location;lat;lon;timestamp;P1;durP1;ratioP1;P2;durP2;ratioP2
20721;SDS011;10522;52.198;9.890;2022-07-01T00:00:29;6.40;;;4.00;;
20721;SDS011;10522;52.198;9.890;2022-07-01T00:02:54;8.17;;;3.50;;
20721;SDS011;10522;52.198;9.890;2022-07-01T00:05:20;6.47;;;3.80;;
20721;SDS011;10522;52.198;9.890;2022-07-01T00:07:46;6.47;;;3.70;;
20721;SDS011;10522;52.198;9.890;2022-07-01T00:10:12;5.33;;;3.43;;
20721;SDS011;10522;52.198;9.890;2022-07-01T00:12:38;6.17;;;3.70;;
20721;SDS011;10522;52.198;9.890;2022-07-01T00:15:03;5.50;;;3.77;;
20721;SDS011;10522;52.198;9.890;2022-07-01T00:17:29;5.33;;;3.93;;
20721;SDS011;10522;52.198;9.890;2022-07-01T00:19:55;6.90;;;4.73;;
20721;SDS011;10522;52.198;9.890;2022-07-01T00:22:21;7.90;;;4.17;;
20721;SDS011;10522;52.198;9.890;2022-07-01T00:24:46;6.93;;;4.23;;
20721;SDS011;10522;52.198;9.890;2022-07-01T00:27:13;8.30;;;5.17;;
20721;SDS011;10522;52.198;9.890;2022-07-01T00:29:39;10.17;;;5.60;;
20721;SDS011;10522;52.198;9.890;2022-07-01T00:32:05;9.40;;;5.70;;
20721;SDS011;10522;52.198;9.890;2022-07-01T00:34:30;9.50;;;5.73;;
20721;SDS011;10522;52.198;9.890;2022-07-01T00:36:56;8.97;;;5.93;;
20721;SDS011;10522;52.198;9.890;2022-07-01T00:39:21;8.80;;;6.63;;
20721;SDS011;10522;52.198;9.890;2022-07-01T00:41:47;8.83;;;6.27;;
20721;SDS011;10522;52.198;9.890;2022-07-01T00:44:16;13.83;;;6.60;;
20721;SDS011;10522;52.198;9.890;2022-07-01T00:46:43;10.17;;;7.13;;
20721;SDS011;10522;52.198;9.890;2022-07-01T00:49:09;9.83;;;6.63;;
20721;SDS011;10522;52.198;9.890;2022-07-01T00:51:35;13.27;;;6.83;;
20721;SDS011;10522;52.198;9.890;2022-07-01T00:54:00;9.40;;;7.10;;
20721;SDS011;10522;52.198;9.890;2022-07-01T00:56:26;10.83;;;6.57;;
20721;SDS011;10522;52.198;9.890;2022-07-01T00:58:52;8.00;;;6.33;;
20721;SDS011;10522;52.198;9.890;2022-07-01T01:01:18;9.70;;;6.30;;
20721;SDS011;10522;52.198;9.890;2022-07-01T01:03:44;11.10;;;6.30;;
20721;SDS011;10522;52.198;9.890;2022-07-01T01:06:10;11.47;;;6.77;;
20721;SDS011;10522;52.198;9.890;2022-07-01T01:08:36;9.43;;;6.87;;
20721;SDS011;10522;52.198;9.890;2022-07-01T01:11:03;12.03;;;6.23;;
20721;SDS011;10522;52.198;9.890;2022-07-01T01:13:30;9.87;;;5.67;;
20721;SDS011;10522;52.198;9.890;2022-07-01T01:15:56;9.20;;;5.53;;
20721;SDS011;10522;52.198;9.890;2022-07-01T01:18:22;6.47;;;5.57;;
20721;SDS011;10522;52.198;9.890;2022-07-01T01:20:47;6.80;;;4.30;;
20721;SDS011;10522;52.198;9.890;2022-07-01T01:23:13;9.50;;;5.57;;
20721;SDS011;10522;52.198;9.890;2022-07-01T01:25:38;8.50;;;5.50;;
20721;SDS011;10522;52.198;9.890;2022-07-01T01:28:04;10.33;;;5.57;;
20721;SDS011;10522;52.198;9.890;2022-07-01T01:30:30;8.17;;;5.13;;
20721;SDS011;10522;52.198;9.890;2022-07-01T01:32:55;8.13;;;5.73;;
20721;SDS011;10522;52.198;9.890;2022-07-01T01:35:21;7.57;;;4.83;;
20721;SDS011;10522;52.198;9.890;2022-07-01T01:37:47;7.47;;;5.73;;
20721;SDS011;10522;52.198;9.890;2022-07-01T01:40:13;7.90;;;6.10;;
20721;SDS011;10522;52.198;9.890;2022-07-01T01:42:39;9.67;;;5.10;;
20721;SDS011;10522;52.198;9.890;2022-07-01T01:45:06;7.83;;;5.40;;
20721;SDS011;10522;52.198;9.890;2022-07-01T01:47:32;7.27;;;5.50;;
20721;SDS011;10522;52.198;9.890;2022-07-01T01:49:57;6.33;;;5.57;;
20721;SDS011;10522;52.198;9.890;2022-07-01T01:52:23;7.23;;;5.90;;
20721;SDS011;10522;52.198;9.890;2022-07-01T01:54:48;9.60;;;6.03;;
20721;SDS011;10522;52.198;9.890;2022-07-01T01:57:14;6.20;;;5.07;;
20721;SDS011;10522;52.198;9.890;2022-07-01T01:59:39;7.57;;;4.97;;
20721;SDS011;10522;52.198;9.890;2022-07-01T02:02:05;5.23;;;4.33;;
20721;SDS011;10522;52.198;9.890;2022-07-01T02:04:31;9.23;;;4.43;;
20721;SDS011;10522;52.198;9.890;2022-07-01T02:06:57;4.40;;;3.83;;
20721;SDS011;10522;52.198;9.890;2022-07-01T02:09:23;4.83;;;3.63;;
20721;SDS011;10522;52.198;9.890;2022-07-01T02:11:48;3.73;;;3.23;;
20721;SDS011;10522;52.198;9.890;2022-07-01T02:14:14;6.03;;;2.47;;
20721;SDS011;10522;52.198;9.890;2022-07-01T02:16:39;5.00;;;3.00;;
20721;SDS011;10522;52.198;9.890;2022-07-01T02:19:05;4.43;;;2.80;;
20721;SDS011;10522;52.198;9.890;2022-07-01T02:21:30;3.20;;;2.90;;
20721;SDS011;10522;52.198;9.890;2022-07-01T02:23:56;5.27;;;2.67;;
20721;SDS011;10522;52.198;9.890;2022-07-01T02:26:21;3.10;;;2.80;;
20721;SDS011;10522;52.198;9.890;2022-07-01T02:28:47;2.17;;;1.97;;
20721;SDS011;10522;52.198;9.890;2022-07-01T02:31:12;1.90;;;1.80;;
20721;SDS011;10522;52.198;9.890;2022-07-01T02:33:38;3.97;;;1.33;;
20721;SDS011;10522;52.198;9.890;2022-07-01T02:36:03;3.40;;;0.80;;
20721;SDS011;10522;52.198;9.890;2022-07-01T02:38:29;0.83;;;0.80;;
20721;SDS011;10522;52.198;9.890;2022-07-01T02:40:55;0.80;;;0.70;;
20721;SDS011;10522;52.198;9.890;2022-07-01T02:43:20;0.80;;;0.80;;
20721;SDS011;10522;52.198;9.890;2022-07-01T02:45:46;0.60;;;0.60;;
20721;SDS011;10522;52.198;9.890;2022-07-01T02:54:29;1.33;;;0.97;;
20721;SDS011;10522;52.198;9.890;2022-07-01T02:56:54;1.63;;;1.30;;
20721;SDS011;10522;52.198;9.890;2022-07-01T02:59:20;1.30;;;1.20;;
20721;SDS011;10522;52.198;9.890;2022-07-01T03:01:45;1.70;;;1.60;;
20721;SDS011;10522;52.198;9.890;2022-07-01T03:04:11;1.13;;;1.00;;
20721;SDS011;10522;52.198;9.890;2022-07-01T03:06:36;2.53;;;1.60;;
20721;SDS011;10522;52.198;9.890;2022-07-01T03:09:02;2.33;;;1.67;;
20721;SDS011;10522;52.198;9.890;2022-07-01T03:11:27;3.10;;;1.30;;
20721;SDS011;10522;52.198;9.890;2022-07-01T03:13:53;4.00;;;1.50;;
20721;SDS011;10522;52.198;9.890;2022-07-01T03:16:18;2.13;;;1.70;;
20721;SDS011;10522;52.198;9.890;2022-07-01T03:18:44;1.97;;;1.70;;
20721;SDS011;10522;52.198;9.890;2022-07-01T03:21:09;2.17;;;1.50;;
20721;SDS011;10522;52.198;9.890;2022-07-01T03:23:35;1.37;;;1.27;;
20721;SDS011;10522;52.198;9.890;2022-07-01T03:26:00;3.97;;;1.67;;
20721;SDS011;10522;52.198;9.890;2022-07-01T03:28:26;3.03;;;1.37;;
20721;SDS011;10522;52.198;9.890;2022-07-01T03:30:51;1.70;;;1.60;;
20721;SDS011;10522;52.198;9.890;2022-07-01T03:33:17;1.63;;;1.23;;
20721;SDS011;10522;52.198;9.890;2022-07-01T03:35:42;2.20;;;1.20;;
20721;SDS011;10522;52.198;9.890;2022-07-01T03:38:10;2.50;;;1.27;;
20721;SDS011;10522;52.198;9.890;2022-07-01T03:40:37;1.10;;;1.00;;
20721;SDS011;10522;52.198;9.890;2022-07-01T03:43:04;1.43;;;1.30;;
20721;SDS011;10522;52.198;9.890;2022-07-01T03:45:29;0.80;;;0.80;;
20721;SDS011;10522;52.198;9.890;2022-07-01T03:47:55;2.07;;;1.60;;
20721;SDS011;10522;52.198;9.890;2022-07-01T03:50:22;1.53;;;1.43;;
20721;SDS011;10522;52.198;9.890;2022-07-01T03:52:50;1.40;;;1.30;;
20721;SDS011;10522;52.198;9.890;2022-07-01T03:55:35;1.87;;;1.47;;
20721;SDS011;10522;52.198;9.890;2022-07-01T03:58:00;5.27;;;1.50;;
20721;SDS011;10522;52.198;9.890;2022-07-01T04:00:26;4.43;;;1.60;;
20721;SDS011;10522;52.198;9.890;2022-07-01T04:02:52;4.13;;;1.80;;
20721;SDS011;10522;52.198;9.890;2022-07-01T04:05:18;4.03;;;1.53;;
20721;SDS011;10522;52.198;9.890;2022-07-01T04:07:43;6.73;;;1.80;;
20721;SDS011;10522;52.198;9.890;2022-07-01T04:10:09;4.07;;;1.37;;
20721;SDS011;10522;52.198;9.890;2022-07-01T04:12:34;2.40;;;1.20;;
20721;SDS011;10522;52.198;9.890;2022-07-01T04:15:00;1.17;;;0.83;;
20721;SDS011;10522;52.198;9.890;2022-07-01T04:17:26;1.23;;;0.80;;
20721;SDS011;10522;52.198;9.890;2022-07-01T04:19:52;1.93;;;1.03;;
20721;SDS011;10522;52.198;9.890;2022-07-01T04:22:18;1.03;;;1.00;;
20721;SDS011;10522;52.198;9.890;2022-07-01T04:24:59;1.00;;;0.90;;
20721;SDS011;10522;52.198;9.890;2022-07-01T04:27:26;1.47;;;1.20;;
20721;SDS011;10522;52.198;9.890;2022-07-01T04:29:51;6.20;;;1.20;;
20721;SDS011;10522;52.198;9.890;2022-07-01T04:32:17;3.23;;;1.10;;
20721;SDS011;10522;52.198;9.890;2022-07-01T04:34:42;1.90;;;1.00;;
20721;SDS011;10522;52.198;9.890;2022-07-01T04:37:08;1.30;;;1.17;;
20721;SDS011;10522;52.198;9.890;2022-07-01T04:39:33;1.50;;;1.30;;
20721;SDS011;10522;52.198;9.890;2022-07-01T04:41:59;1.03;;;0.93;;
20721;SDS011;10522;52.198;9.890;2022-07-01T04:44:25;1.03;;;0.97;;
20721;SDS011;10522;52.198;9.890;2022-07-01T04:46:51;4.87;;;1.30;;
20721;SDS011;10522;52.198;9.890;2022-07-01T04:49:17;1.17;;;1.03;;
20721;SDS011;10522;52.198;9.890;2022-07-01T04:51:43;1.60;;;1.50;;
20721;SDS011;10522;52.198;9.890;2022-07-01T04:54:08;1.20;;;1.10;;
20721;SDS011;10522;52.198;9.890;2022-07-01T04:56:34;1.40;;;1.30;;
20721;SDS011;10522;52.198;9.890;2022-07-01T04:59:01;2.10;;;1.50;;
20721;SDS011;10522;52.198;9.890;2022-07-01T05:01:27;2.50;;;1.40;;
20721;SDS011;10522;52.198;9.890;2022-07-01T05:03:53;1.23;;;1.13;;
20721;SDS011;10522;52.198;9.890;2022-07-01T05:06:19;1.90;;;1.33;;
20721;SDS011;10522;52.198;9.890;2022-07-01T05:08:44;2.30;;;1.30;;
20721;SDS011;10522;52.198;9.890;2022-07-01T05:11:10;3.07;;;1.27;;
20721;SDS011;10522;52.198;9.890;2022-07-01T05:13:36;1.87;;;1.23;;
20721;SDS011;10522;52.198;9.890;2022-07-01T05:16:02;1.30;;;1.20;;
20721;SDS011;10522;52.198;9.890;2022-07-01T05:18:28;0.87;;;0.87;;
20721;SDS011;10522;52.198;9.890;2022-07-01T05:21:12;1.73;;;1.40;;
20721;SDS011;10522;52.198;9.890;2022-07-01T05:23:56;1.67;;;1.33;;
20721;SDS011;10522;52.198;9.890;2022-07-01T05:26:22;1.67;;;1.53;;
20721;SDS011;10522;52.198;9.890;2022-07-01T05:28:50;1.50;;;1.40;;
20721;SDS011;10522;52.198;9.890;2022-07-01T05:31:17;2.33;;;1.70;;
20721;SDS011;10522;52.198;9.890;2022-07-01T05:33:43;1.20;;;1.07;;
20721;SDS011;10522;52.198;9.890;2022-07-01T05:36:09;1.50;;;1.40;;
20721;SDS011;10522;52.198;9.890;2022-07-01T05:38:35;4.87;;;1.77;;
20721;SDS011;10522;52.198;9.890;2022-07-01T05:41:01;2.13;;;1.80;;
20721;SDS011;10522;52.198;9.890;2022-07-01T05:43:26;8.47;;;1.57;;
20721;SDS011;10522;52.198;9.890;2022-07-01T05:45:52;8.37;;;2.00;;
20721;SDS011;10522;52.198;9.890;2022-07-01T05:48:17;2.07;;;1.50;;
20721;SDS011;10522;52.198;9.890;2022-07-01T05:50:43;2.50;;;1.47;;
20721;SDS011;10522;52.198;9.890;2022-07-01T05:53:09;1.87;;;1.60;;
20721;SDS011;10522;52.198;9.890;2022-07-01T05:55:34;2.73;;;1.60;;
20721;SDS011;10522;52.198;9.890;2022-07-01T05:58:00;2.60;;;1.97;;
20721;SDS011;10522;52.198;9.890;2022-07-01T06:00:26;2.87;;;2.13;;
20721;SDS011;10522;52.198;9.890;2022-07-01T06:02:53;2.60;;;1.87;;
20721;SDS011;10522;52.198;9.890;2022-07-01T06:05:18;2.90;;;1.97;;
20721;SDS011;10522;52.198;9.890;2022-07-01T06:07:44;1.87;;;1.77;;
20721;SDS011;10522;52.198;9.890;2022-07-01T06:10:09;3.67;;;1.93;;
20721;SDS011;10522;52.198;9.890;2022-07-01T06:12:36;2.60;;;2.27;;
20721;SDS011;10522;52.198;9.890;2022-07-01T06:15:03;2.87;;;2.13;;
20721;SDS011;10522;52.198;9.890;2022-07-01T06:17:29;4.13;;;2.10;;
20721;SDS011;10522;52.198;9.890;2022-07-01T06:19:55;9.53;;;2.77;;
20721;SDS011;10522;52.198;9.890;2022-07-01T06:22:20;5.17;;;2.70;;
20721;SDS011;10522;52.198;9.890;2022-07-01T06:24:46;3.63;;;2.60;;
20721;SDS011;10522;52.198;9.890;2022-07-01T06:27:12;2.50;;;1.97;;
20721;SDS011;10522;52.198;9.890;2022-07-01T06:29:38;3.30;;;2.37;;
20721;SDS011;10522;52.198;9.890;2022-07-01T06:32:04;3.03;;;2.73;;
20721;SDS011;10522;52.198;9.890;2022-07-01T06:34:31;3.60;;;2.20;;
20721;SDS011;10522;52.198;9.890;2022-07-01T06:36:56;5.03;;;2.40;;
20721;SDS011;10522;52.198;9.890;2022-07-01T06:39:25;6.40;;;2.80;;
20721;SDS011;10522;52.198;9.890;2022-07-01T06:41:51;8.57;;;3.03;;
20721;SDS011;10522;52.198;9.890;2022-07-01T06:44:16;5.70;;;3.63;;
20721;SDS011;10522;52.198;9.890;2022-07-01T06:46:42;6.63;;;2.30;;
20721;SDS011;10522;52.198;9.890;2022-07-01T06:49:08;7.73;;;3.60;;
20721;SDS011;10522;52.198;9.890;2022-07-01T06:51:33;4.70;;;3.00;;
20721;SDS011;10522;52.198;9.890;2022-07-01T06:53:59;5.30;;;2.80;;
20721;SDS011;10522;52.198;9.890;2022-07-01T06:56:24;3.53;;;2.70;;
20721;SDS011;10522;52.198;9.890;2022-07-01T06:58:50;3.67;;;2.53;;
20721;SDS011;10522;52.198;9.890;2022-07-01T07:01:16;7.00;;;3.03;;
20721;SDS011;10522;52.198;9.890;2022-07-01T07:03:41;9.17;;;3.80;;
20721;SDS011;10522;52.198;9.890;2022-07-01T07:06:07;3.43;;;3.03;;
20721;SDS011;10522;52.198;9.890;2022-07-01T07:08:32;3.73;;;3.10;;
20721;SDS011;10522;52.198;9.890;2022-07-01T07:10:58;5.80;;;3.10;;
20721;SDS011;10522;52.198;9.890;2022-07-01T07:13:24;3.90;;;2.57;;
20721;SDS011;10522;52.198;9.890;2022-07-01T07:15:50;4.10;;;3.10;;
20721;SDS011;10522;52.198;9.890;2022-07-01T07:18:16;4.20;;;2.90;;
20721;SDS011;10522;52.198;9.890;2022-07-01T07:20:41;3.60;;;2.60;;
20721;SDS011;10522;52.198;9.890;2022-07-01T07:23:07;3.97;;;3.10;;
20721;SDS011;10522;52.198;9.890;2022-07-01T07:25:33;6.83;;;2.87;;
20721;SDS011;10522;52.198;9.890;2022-07-01T07:27:59;4.43;;;2.97;;
20721;SDS011;10522;52.198;9.890;2022-07-01T07:30:25;5.53;;;3.43;;
20721;SDS011;10522;52.198;9.890;2022-07-01T07:32:50;5.67;;;3.57;;
20721;SDS011;10522;52.198;9.890;2022-07-01T07:35:16;5.53;;;3.97;;
20721;SDS011;10522;52.198;9.890;2022-07-01T07:37:42;7.00;;;5.40;;
20721;SDS011;10522;52.198;9.890;2022-07-01T07:40:08;7.23;;;4.73;;
20721;SDS011;10522;52.198;9.890;2022-07-01T07:42:37;6.97;;;4.50;;
20721;SDS011;10522;52.198;9.890;2022-07-01T07:45:06;7.07;;;4.37;;
20721;SDS011;10522;52.198;9.890;2022-07-01T07:47:35;4.57;;;3.63;;
20721;SDS011;10522;52.198;9.890;2022-07-01T07:50:02;6.93;;;4.63;;
20721;SDS011;10522;52.198;9.890;2022-07-01T07:52:28;5.30;;;3.93;;
20721;SDS011;10522;52.198;9.890;2022-07-01T07:54:54;7.60;;;4.70;;
20721;SDS011;10522;52.198;9.890;2022-07-01T07:57:20;7.00;;;4.27;;
20721;SDS011;10522;52.198;9.890;2022-07-01T07:59:45;5.13;;;4.10;;
20721;SDS011;10522;52.198;9.890;2022-07-01T08:02:11;5.83;;;3.70;;
20721;SDS011;10522;52.198;9.890;2022-07-01T08:04:38;6.17;;;3.87;;
20721;SDS011;10522;52.198;9.890;2022-07-01T08:07:04;4.60;;;3.73;;
20721;SDS011;10522;52.198;9.890;2022-07-01T08:09:29;9.27;;;5.47;;
20721;SDS011;10522;52.198;9.890;2022-07-01T08:11:59;7.10;;;5.13;;
20721;SDS011;10522;52.198;9.890;2022-07-01T08:14:28;6.73;;;4.30;;
20721;SDS011;10522;52.198;9.890;2022-07-01T08:16:53;5.60;;;3.77;;
20721;SDS011;10522;52.198;9.890;2022-07-01T08:19:19;8.57;;;4.67;;
20721;SDS011;10522;52.198;9.890;2022-07-01T08:21:44;6.70;;;4.93;;
20721;SDS011;10522;52.198;9.890;2022-07-01T08:24:10;6.77;;;4.00;;
20721;SDS011;10522;52.198;9.890;2022-07-01T08:26:35;8.57;;;5.53;;
20721;SDS011;10522;52.198;9.890;2022-07-01T08:29:01;9.43;;;4.70;;
20721;SDS011;10522;52.198;9.890;2022-07-01T08:31:27;9.70;;;4.53;;
20721;SDS011;10522;52.198;9.890;2022-07-01T08:33:52;4.03;;;3.00;;
20721;SDS011;10522;52.198;9.890;2022-07-01T08:36:18;4.63;;;2.53;;
20721;SDS011;10522;52.198;9.890;2022-07-01T08:38:43;3.73;;;2.40;;
20721;SDS011;10522;52.198;9.890;2022-07-01T08:41:11;4.23;;;2.40;;
20721;SDS011;10522;52.198;9.890;2022-07-01T08:43:38;4.17;;;2.40;;
20721;SDS011;10522;52.198;9.890;2022-07-01T08:46:04;3.87;;;2.43;;
20721;SDS011;10522;52.198;9.890;2022-07-01T08:48:29;3.40;;;2.63;;
20721;SDS011;10522;52.198;9.890;2022-07-01T08:50:55;4.50;;;3.10;;
20721;SDS011;10522;52.198;9.890;2022-07-01T08:53:21;6.33;;;3.33;;
20721;SDS011;10522;52.198;9.890;2022-07-01T08:55:47;6.80;;;4.40;;
20721;SDS011;10522;52.198;9.890;2022-07-01T08:58:31;5.67;;;4.10;;
20721;SDS011;10522;52.198;9.890;2022-07-01T09:01:11;4.23;;;3.40;;
20721;SDS011;10522;52.198;9.890;2022-07-01T09:03:41;6.80;;;3.83;;
20721;SDS011;10522;52.198;9.890;2022-07-01T09:06:11;3.33;;;3.03;;
20721;SDS011;10522;52.198;9.890;2022-07-01T09:08:56;4.30;;;3.43;;
20721;SDS011;10522;52.198;9.890;2022-07-01T09:11:43;7.43;;;3.70;;
20721;SDS011;10522;52.198;9.890;2022-07-01T09:14:14;4.33;;;3.43;;
20721;SDS011;10522;52.198;9.890;2022-07-01T09:16:44;5.73;;;3.57;;
20721;SDS011;10522;52.198;9.890;2022-07-01T09:19:12;7.53;;;3.67;;
20721;SDS011;10522;52.198;9.890;2022-07-01T09:21:39;3.90;;;3.10;;
20721;SDS011;10522;52.198;9.890;2022-07-01T09:24:21;4.37;;;3.33;;
20721;SDS011;10522;52.198;9.890;2022-07-01T09:26:53;4.90;;;3.70;;
20721;SDS011;10522;52.198;9.890;2022-07-01T09:29:27;5.47;;;3.47;;
20721;SDS011;10522;52.198;9.890;2022-07-01T09:31:56;4.77;;;3.20;;
20721;SDS011;10522;52.198;9.890;2022-07-01T09:34:22;5.70;;;3.07;;
20721;SDS011;10522;52.198;9.890;2022-07-01T09:36:51;4.77;;;3.37;;
20721;SDS011;10522;52.198;9.890;2022-07-01T09:39:18;4.60;;;4.03;;
20721;SDS011;10522;52.198;9.890;2022-07-01T09:41:43;4.70;;;3.33;;
20721;SDS011;10522;52.198;9.890;2022-07-01T09:44:09;4.33;;;3.33;;
20721;SDS011;10522;52.198;9.890;2022-07-01T09:46:35;4.97;;;3.70;;
20721;SDS011;10522;52.198;9.890;2022-07-01T09:49:01;4.60;;;3.60;;
20721;SDS011;10522;52.198;9.890;2022-07-01T09:51:27;6.53;;;3.50;;
20721;SDS011;10522;52.198;9.890;2022-07-01T09:53:54;5.73;;;4.10;;
20721;SDS011;10522;52.198;9.890;2022-07-01T09:56:21;6.10;;;3.77;;
20721;SDS011;10522;52.198;9.890;2022-07-01T09:58:48;6.03;;;4.23;;
20721;SDS011;10522;52.198;9.890;2022-07-01T10:01:13;6.47;;;4.60;;
20721;SDS011;10522;52.198;9.890;2022-07-01T10:03:40;7.43;;;4.47;;
20721;SDS011;10522;52.198;9.890;2022-07-01T10:11:39;11.10;;;4.47;;
20721;SDS011;10522;52.198;9.890;2022-07-01T10:14:28;6.70;;;4.10;;
20721;SDS011;10522;52.198;9.890;2022-07-01T10:16:55;9.60;;;4.60;;
20721;SDS011;10522;52.198;9.890;2022-07-01T10:21:51;6.33;;;4.00;;
20721;SDS011;10522;52.198;9.890;2022-07-01T10:24:21;7.90;;;4.30;;
20721;SDS011;10522;52.198;9.890;2022-07-01T10:26:47;11.77;;;4.93;;
20721;SDS011;10522;52.198;9.890;2022-07-01T10:29:26;7.50;;;4.60;;
20721;SDS011;10522;52.198;9.890;2022-07-01T10:32:00;5.37;;;4.07;;
20721;SDS011;10522;52.198;9.890;2022-07-01T10:34:34;6.03;;;4.30;;
20721;SDS011;10522;52.198;9.890;2022-07-01T10:37:05;5.83;;;3.63;;
20721;SDS011;10522;52.198;9.890;2022-07-01T10:42:21;7.23;;;4.33;;
20721;SDS011;10522;52.198;9.890;2022-07-01T10:45:02;7.37;;;4.63;;
20721;SDS011;10522;52.198;9.890;2022-07-01T10:47:35;6.70;;;4.03;;
20721;SDS011;10522;52.198;9.890;2022-07-01T10:50:09;7.73;;;4.37;;
20721;SDS011;10522;52.198;9.890;2022-07-01T10:52:57;6.87;;;4.60;;
20721;SDS011;10522;52.198;9.890;2022-07-01T10:55:35;7.50;;;4.70;;
20721;SDS011;10522;52.198;9.890;2022-07-01T10:58:05;7.47;;;5.07;;
20721;SDS011;10522;52.198;9.890;2022-07-01T11:00:31;8.63;;;4.90;;
20721;SDS011;10522;52.198;9.890;2022-07-01T11:03:09;11.77;;;5.47;;
20721;SDS011;10522;52.198;9.890;2022-07-01T11:05:38;10.37;;;5.63;;
20721;SDS011;10522;52.198;9.890;2022-07-01T11:08:05;9.93;;;5.70;;
20721;SDS011;10522;52.198;9.890;2022-07-01T11:10:33;10.80;;;5.67;;
20721;SDS011;10522;52.198;9.890;2022-07-01T11:12:59;9.20;;;4.90;;
20721;SDS011;10522;52.198;9.890;2022-07-01T11:15:26;6.70;;;5.30;;
20721;SDS011;10522;52.198;9.890;2022-07-01T11:17:54;6.83;;;4.83;;
20721;SDS011;10522;52.198;9.890;2022-07-01T11:20:21;5.63;;;4.37;;
20721;SDS011;10522;52.198;9.890;2022-07-01T11:22:48;9.87;;;4.93;;
20721;SDS011;10522;52.198;9.890;2022-07-01T11:25:14;6.90;;;4.43;;
20721;SDS011;10522;52.198;9.890;2022-07-01T11:27:39;6.60;;;4.63;;
20721;SDS011;10522;52.198;9.890;2022-07-01T11:30:09;5.50;;;4.63;;
20721;SDS011;10522;52.198;9.890;2022-07-01T11:32:40;6.50;;;4.50;;
20721;SDS011;10522;52.198;9.890;2022-07-01T11:35:08;6.83;;;4.30;;
20721;SDS011;10522;52.198;9.890;2022-07-01T11:38:31;9.27;;;5.30;;
20721;SDS011;10522;52.198;9.890;2022-07-01T11:41:19;8.57;;;4.23;;
20721;SDS011;10522;52.198;9.890;2022-07-01T11:43:46;5.10;;;4.37;;
20721;SDS011;10522;52.198;9.890;2022-07-01T11:46:12;5.03;;;4.07;;
20721;SDS011;10522;52.198;9.890;2022-07-01T11:48:39;6.70;;;4.33;;
20721;SDS011;10522;52.198;9.890;2022-07-01T11:51:11;5.47;;;3.70;;
20721;SDS011;10522;52.198;9.890;2022-07-01T11:53:41;5.07;;;3.50;;
20721;SDS011;10522;52.198;9.890;2022-07-01T11:56:08;5.37;;;3.30;;
20721;SDS011;10522;52.198;9.890;2022-07-01T11:58:55;6.07;;;3.67;;
20721;SDS011;10522;52.198;9.890;2022-07-01T12:03:58;3.67;;;3.20;;
20721;SDS011;10522;52.198;9.890;2022-07-01T12:06:26;3.50;;;3.20;;
20721;SDS011;10522;52.198;9.890;2022-07-01T12:08:52;4.57;;;3.50;;
20721;SDS011;10522;52.198;9.890;2022-07-01T12:11:20;5.57;;;3.23;;
20721;SDS011;10522;52.198;9.890;2022-07-01T12:13:49;4.70;;;3.63;;
20721;SDS011;10522;52.198;9.890;2022-07-01T12:16:15;4.23;;;3.50;;
20721;SDS011;10522;52.198;9.890;2022-07-01T12:18:51;4.37;;;3.47;;
20721;SDS011;10522;52.198;9.890;2022-07-01T12:21:22;5.97;;;3.93;;
20721;SDS011;10522;52.198;9.890;2022-07-01T12:24:10;3.80;;;3.10;;
20721;SDS011;10522;52.198;9.890;2022-07-01T12:26:45;7.07;;;3.40;;
20721;SDS011;10522;52.198;9.890;2022-07-01T12:32:22;4.73;;;3.50;;
20721;SDS011;10522;52.198;9.890;2022-07-01T12:34:53;4.80;;;3.73;;
20721;SDS011;10522;52.198;9.890;2022-07-01T12:37:25;4.13;;;3.43;;
20721;SDS011;10522;52.198;9.890;2022-07-01T12:40:06;4.30;;;3.43;;
20721;SDS011;10522;52.198;9.890;2022-07-01T12:45:09;5.83;;;3.63;;
20721;SDS011;10522;52.198;9.890;2022-07-01T12:47:48;6.37;;;4.07;;
20721;SDS011;10522;52.198;9.890;2022-07-01T12:50:16;4.07;;;3.30;;
20721;SDS011;10522;52.198;9.890;2022-07-01T12:53:04;5.70;;;3.63;;
20721;SDS011;10522;52.198;9.890;2022-07-01T12:55:38;3.50;;;2.87;;
20721;SDS011;10522;52.198;9.890;2022-07-01T12:58:13;4.20;;;3.27;;
20721;SDS011;10522;52.198;9.890;2022-07-01T13:00:42;5.53;;;3.53;;
20721;SDS011;10522;52.198;9.890;2022-07-01T13:03:10;3.90;;;2.83;;
20721;SDS011;10522;52.198;9.890;2022-07-01T13:05:36;4.20;;;3.30;;
20721;SDS011;10522;52.198;9.890;2022-07-01T13:08:04;6.17;;;2.50;;
20721;SDS011;10522;52.198;9.890;2022-07-01T13:10:30;5.10;;;3.57;;
20721;SDS011;10522;52.198;9.890;2022-07-01T13:12:56;6.37;;;2.83;;
20721;SDS011;10522;52.198;9.890;2022-07-01T13:15:22;3.97;;;2.80;;
20721;SDS011;10522;52.198;9.890;2022-07-01T13:17:48;3.67;;;2.40;;
20721;SDS011;10522;52.198;9.890;2022-07-01T13:20:15;4.03;;;2.70;;
20721;SDS011;10522;52.198;9.890;2022-07-01T13:22:41;3.73;;;2.70;;
20721;SDS011;10522;52.198;9.890;2022-07-01T13:25:08;4.93;;;2.50;;
20721;SDS011;10522;52.198;9.890;2022-07-01T13:27:50;3.43;;;2.77;;
20721;SDS011;10522;52.198;9.890;2022-07-01T13:30:21;5.27;;;2.70;;
20721;SDS011;10522;52.198;9.890;2022-07-01T13:32:47;3.53;;;2.80;;
20721;SDS011;10522;52.198;9.890;2022-07-01T13:35:17;9.97;;;5.10;;
20721;SDS011;10522;52.198;9.890;2022-07-01T13:37:42;4.27;;;3.03;;
20721;SDS011;10522;52.198;9.890;2022-07-01T13:40:08;8.00;;;3.43;;
20721;SDS011;10522;52.198;9.890;2022-07-01T13:42:35;3.60;;;2.50;;
20721;SDS011;10522;52.198;9.890;2022-07-01T13:45:01;6.60;;;3.00;;
20721;SDS011;10522;52.198;9.890;2022-07-01T13:47:27;4.53;;;2.30;;
20721;SDS011;10522;52.198;9.890;2022-07-01T13:49:53;4.50;;;2.13;;
20721;SDS011;10522;52.198;9.890;2022-07-01T13:52:18;8.10;;;4.80;;
20721;SDS011;10522;52.198;9.890;2022-07-01T13:54:44;6.13;;;2.57;;
20721;SDS011;10522;52.198;9.890;2022-07-01T13:57:09;8.70;;;3.67;;
20721;SDS011;10522;52.198;9.890;2022-07-01T13:59:35;2.93;;;2.63;;
20721;SDS011;10522;52.198;9.890;2022-07-01T14:02:00;4.27;;;3.37;;
20721;SDS011;10522;52.198;9.890;2022-07-01T14:04:26;4.80;;;2.97;;
20721;SDS011;10522;52.198;9.890;2022-07-01T14:06:52;5.43;;;2.87;;
20721;SDS011;10522;52.198;9.890;2022-07-01T14:09:17;4.37;;;2.67;;
20721;SDS011;10522;52.198;9.890;2022-07-01T14:11:43;3.60;;;2.53;;
20721;SDS011;10522;52.198;9.890;2022-07-01T14:14:09;2.87;;;2.53;;
20721;SDS011;10522;52.198;9.890;2022-07-01T14:16:35;3.70;;;2.80;;
20721;SDS011;10522;52.198;9.890;2022-07-01T14:19:01;3.07;;;2.70;;
20721;SDS011;10522;52.198;9.890;2022-07-01T14:21:27;3.40;;;2.90;;
20721;SDS011;10522;52.198;9.890;2022-07-01T14:23:52;5.73;;;3.93;;
20721;SDS011;10522;52.198;9.890;2022-07-01T14:26:18;4.93;;;3.63;;
20721;SDS011;10522;52.198;9.890;2022-07-01T14:28:44;8.93;;;4.00;;
20721;SDS011;10522;52.198;9.890;2022-07-01T14:31:09;5.77;;;5.20;;
20721;SDS011;10522;52.198;9.890;2022-07-01T14:33:35;9.03;;;4.87;;
20721;SDS011;10522;52.198;9.890;2022-07-01T14:36:01;4.50;;;3.70;;
20721;SDS011;10522;52.198;9.890;2022-07-01T14:38:27;6.23;;;4.00;;
20721;SDS011;10522;52.198;9.890;2022-07-01T14:40:53;4.43;;;3.33;;
20721;SDS011;10522;52.198;9.890;2022-07-01T14:43:18;4.07;;;3.03;;
20721;SDS011;10522;52.198;9.890;2022-07-01T14:45:44;3.47;;;2.17;;
20721;SDS011;10522;52.198;9.890;2022-07-01T14:48:10;2.90;;;2.00;;
20721;SDS011;10522;52.198;9.890;2022-07-01T14:50:35;2.77;;;2.10;;
20721;SDS011;10522;52.198;9.890;2022-07-01T14:53:01;7.57;;;2.17;;
20721;SDS011;10522;52.198;9.890;2022-07-01T14:55:28;2.27;;;1.80;;
20721;SDS011;10522;52.198;9.890;2022-07-01T14:57:55;3.03;;;2.00;;
20721;SDS011;10522;52.198;9.890;2022-07-01T15:00:21;5.80;;;1.90;;
20721;SDS011;10522;52.198;9.890;2022-07-01T15:02:46;3.20;;;1.83;;
20721;SDS011;10522;52.198;9.890;2022-07-01T15:05:13;3.83;;;2.00;;
20721;SDS011;10522;52.198;9.890;2022-07-01T15:07:39;1.73;;;1.63;;
20721;SDS011;10522;52.198;9.890;2022-07-01T15:10:05;2.97;;;2.47;;
20721;SDS011;10522;52.198;9.890;2022-07-01T15:12:31;2.77;;;2.23;;
20721;SDS011;10522;52.198;9.890;2022-07-01T15:14:57;2.30;;;2.10;;